South Bloomfield, Ohio
Current Conditions -  °F | °C
As of 3:35 AM on Friday 28 Nov 2014 (Local Time) from KLCK Reporting Station
Scattered Clouds Scattered Clouds  
Wind Chill: 16°   Ceiling: Unl
Heat Index: 24°   Visibility: 10mi
Dew Point: 19°   Wind: 7mph
Humidity: 83%   Direction: 290°WNW
Pressure: 30.36"   Gusts: NA
Location:  39.7281°N, 82.9134°W
Report Text: KLCK 280835Z AUTO 29006KT 10SM SCT050 M05/M07 A3036 RMK AO2 T10461071
Loading
Personal Weather Stations






























Interactive Weather Map New forecast layout! Learn more

10-Day Weather Forecast

Advertisements
Track Severe Weather on mobile